Hope, Alaska
Current Conditions -  °F | °C
As of 8:53 AM on Tuesday 21 Oct 2014 (Local Time) from PANC Reporting Station
Broken Clouds Broken Clouds  
Wind Chill: 29°   Ceiling: 8000
Heat Index: 34°   Visibility: 10mi
Dew Point: 29°   Wind: 6mph
Humidity: 82%   Direction: 340°NNW
Pressure: 29.31"   Gusts: NA
Location:  60.91°N, 149.63°W
Report Text: PANC 211653Z 34005KT 10SM FEW055 BKN080 BKN200 01/M02 A2931 RMK AO2 SLP925 T00111017
Loading
Personal Weather Stations






























Interactive Weather Map
Tropical Storm Tracking
New forecast layout! Learn more

10-Day Weather Forecast

Advertisements
Track Severe Weather on mobile